createdAt,value
2019-03-13T00:00:50.828Z,79.77
2019-03-13T00:03:17.271Z,80.02
2019-03-13T00:05:43.520Z,82.44
2019-03-13T00:08:09.758Z,83.65
2019-03-13T00:10:36.008Z,84.10
2019-03-13T00:13:02.335Z,83.26
2019-03-13T00:15:28.608Z,82.48
2019-03-13T00:17:54.828Z,82.81
2019-03-13T00:20:21.175Z,84.55
2019-03-13T00:22:47.435Z,84.04
2019-03-13T00:25:13.673Z,83.87
2019-03-13T00:27:39.896Z,83.79
2019-03-13T00:30:47.455Z,83.90
2019-03-13T00:33:13.691Z,85.09
2019-03-13T00:35:39.939Z,81.89
2019-03-13T00:38:06.179Z,84.18
2019-03-13T00:40:32.402Z,83.27
2019-03-13T00:42:58.654Z,84.08
2019-03-13T00:45:24.918Z,84.10
2019-03-13T00:47:51.142Z,83.77
2019-03-13T00:50:37.133Z,83.86
2019-03-13T00:53:03.365Z,83.71
2019-03-13T00:55:29.605Z,84.83
2019-03-13T00:57:55.834Z,84.98
2019-03-13T01:01:03.393Z,85.55
2019-03-13T01:06:36.993Z,85.29
2019-03-13T01:15:17.980Z,86.92
2019-03-13T01:17:44.228Z,87.29
2019-03-13T01:20:10.467Z,87.38
2019-03-13T01:22:36.692Z,87.04
2019-03-13T01:28:10.281Z,85.49
2019-03-13T01:30:56.259Z,86.92
2019-03-13T01:33:22.491Z,86.33
2019-03-13T01:38:36.329Z,86.07
2019-03-13T01:41:02.555Z,84.12
2019-03-13T01:43:28.792Z,81.99
2019-03-13T01:45:55.018Z,84.26
2019-03-13T01:48:21.264Z,83.33
2019-03-13T01:50:47.494Z,83.29
2019-03-13T01:53:13.738Z,83.95
2019-03-13T01:55:39.960Z,81.92
2019-03-13T01:58:06.200Z,81.21
2019-03-13T02:03:39.814Z,80.76
2019-03-13T02:06:06.047Z,80.66
2019-03-13T02:08:32.290Z,80.10
2019-03-13T02:10:58.520Z,80.36
2019-03-13T02:13:24.878Z,80.28
2019-03-13T02:15:51.107Z,80.39
2019-03-13T02:18:17.344Z,80.27
2019-03-13T02:20:43.573Z,79.75
2019-03-13T02:23:09.807Z,79.96
2019-03-13T02:25:36.049Z,80.48
2019-03-13T02:28:02.276Z,79.81
2019-03-13T02:33:02.228Z,82.47
2019-03-13T02:35:28.515Z,83.12
2019-03-13T02:37:54.715Z,80.23
2019-03-13T02:40:20.957Z,79.79
2019-03-13T02:42:47.180Z,80.46
2019-03-13T02:45:54.761Z,80.28
2019-03-13T02:48:20.991Z,80.34
2019-03-13T02:50:47.296Z,80.91
2019-03-13T02:53:13.589Z,81.26
2019-03-13T02:55:39.828Z,80.84
2019-03-13T02:58:06.055Z,81.45
2019-03-13T03:03:26.201Z,83.08
2019-03-13T03:05:52.453Z,83.40
2019-03-13T03:08:18.677Z,82.49
2019-03-13T03:10:44.968Z,81.83
2019-03-13T03:13:11.191Z,81.62
2019-03-13T03:15:37.455Z,81.83
2019-03-13T03:18:03.690Z,81.37
2019-03-13T03:20:29.933Z,81.12
2019-03-13T03:22:56.158Z,82.80
2019-03-13T03:25:22.381Z,83.39
2019-03-13T03:27:48.628Z,83.09
2019-03-13T03:33:15.535Z,84.09
2019-03-13T03:35:41.782Z,83.52
2019-03-13T03:38:08.029Z,83.66
2019-03-13T03:40:34.250Z,83.59
2019-03-13T03:43:00.501Z,81.92
2019-03-13T03:45:26.741Z,82.01
2019-03-13T03:47:52.987Z,81.62
2019-03-13T03:50:19.237Z,83.33
2019-03-13T03:52:45.465Z,81.37
2019-03-13T03:55:53.009Z,81.13
2019-03-13T03:58:19.243Z,81.75
2019-03-13T04:00:45.472Z,81.22
2019-03-13T04:03:11.712Z,81.71
2019-03-13T04:05:37.955Z,81.55
2019-03-13T04:08:04.268Z,81.23
2019-03-13T04:10:30.519Z,81.99
2019-03-13T04:12:56.781Z,81.47
2019-03-13T04:15:23.006Z,80.14
2019-03-13T04:17:49.240Z,82.50
2019-03-13T04:23:28.656Z,83.59
2019-03-13T04:25:54.887Z,82.89
2019-03-13T04:28:21.127Z,81.81
2019-03-13T04:30:47.357Z,82.10
2019-03-13T04:33:13.611Z,81.71
2019-03-13T04:35:39.823Z,81.39
2019-03-13T04:38:06.083Z,81.47
2019-03-13T04:40:32.313Z,81.95
2019-03-13T04:42:58.555Z,81.65
2019-03-13T04:45:24.796Z,81.15
2019-03-13T04:47:51.023Z,81.28
2019-03-13T04:50:17.262Z,83.17
2019-03-13T04:52:43.491Z,83.43
2019-03-13T04:55:52.549Z,83.17
2019-03-13T04:58:19.326Z,81.80
2019-03-13T05:00:45.547Z,81.22
2019-03-13T05:03:11.775Z,81.07
2019-03-13T05:06:19.336Z,81.16
2019-03-13T05:11:46.066Z,80.53
2019-03-13T05:14:12.306Z,80.64
2019-03-13T05:16:38.535Z,80.98
2019-03-13T05:19:04.820Z,80.36
2019-03-13T05:21:31.056Z,80.01
2019-03-13T05:23:57.284Z,80.57
2019-03-13T05:26:23.531Z,80.70
2019-03-13T05:28:49.755Z,80.25
2019-03-13T05:31:15.994Z,81.63
2019-03-13T05:33:42.565Z,80.82
2019-03-13T05:36:08.806Z,79.97
2019-03-13T05:38:35.066Z,80.51
2019-03-13T05:41:01.272Z,79.35
2019-03-13T05:43:27.501Z,79.74
2019-03-13T05:45:53.734Z,79.47
2019-03-13T05:48:19.956Z,79.67
2019-03-13T05:50:46.204Z,79.58
2019-03-13T05:53:12.435Z,80.58
2019-03-13T05:55:38.680Z,80.00
2019-03-13T05:58:04.957Z,78.58
2019-03-13T06:00:31.153Z,79.33
2019-03-13T06:02:57.394Z,79.08
2019-03-13T06:05:23.666Z,78.92
2019-03-13T06:07:49.892Z,79.89
2019-03-13T06:10:16.121Z,79.44
2019-03-13T06:12:42.363Z,78.53
2019-03-13T06:18:09.947Z,79.47
2019-03-13T06:20:37.203Z,79.69
2019-03-13T06:23:03.433Z,78.63
2019-03-13T06:25:29.664Z,78.72
2019-03-13T06:27:55.908Z,78.35
2019-03-13T06:30:22.146Z,78.82
2019-03-13T06:32:48.414Z,79.08
2019-03-13T06:35:14.644Z,79.67
2019-03-13T06:37:40.883Z,78.47
2019-03-13T06:40:26.875Z,79.01
2019-03-13T06:42:53.127Z,79.53
2019-03-13T06:45:19.356Z,78.74
2019-03-13T06:47:45.595Z,78.35
2019-03-13T06:50:53.131Z,78.37
2019-03-13T06:53:19.374Z,78.81
2019-03-13T06:55:45.603Z,78.94
2019-03-13T06:58:11.842Z,78.45
2019-03-13T07:00:57.837Z,78.13
2019-03-13T07:06:17.779Z,78.22
2019-03-13T07:09:03.789Z,77.30
2019-03-13T07:17:11.057Z,77.29
2019-03-13T07:19:57.051Z,77.06
2019-03-13T07:25:30.638Z,79.74
2019-03-13T07:31:04.243Z,82.75
2019-03-13T07:33:50.232Z,81.89
2019-03-13T07:36:36.233Z,81.15
2019-03-13T07:39:22.236Z,80.53
2019-03-13T07:42:08.244Z,79.38
2019-03-13T07:44:54.244Z,78.24
2019-03-13T07:47:40.373Z,77.82
2019-03-13T07:53:40.271Z,76.04
2019-03-13T07:56:26.256Z,76.89
2019-03-13T07:59:12.262Z,77.03
2019-03-13T08:01:58.244Z,76.06
2019-03-13T08:04:44.246Z,76.39
2019-03-13T08:10:17.849Z,75.93
2019-03-13T08:13:03.856Z,75.21
2019-03-13T08:16:09.586Z,75.20
2019-03-13T08:18:55.588Z,74.67
2019-03-13T08:21:41.598Z,75.39
2019-03-13T08:27:01.676Z,74.33
2019-03-13T08:29:47.676Z,74.47
2019-03-13T08:32:33.668Z,73.26
2019-03-13T08:35:19.677Z,72.54
2019-03-13T08:40:53.349Z,71.95
2019-03-13T08:49:04.416Z,71.12
2019-03-13T08:51:50.431Z,70.82
2019-03-13T08:54:36.445Z,70.87
2019-03-13T08:57:22.446Z,70.12
2019-03-13T09:00:08.449Z,69.57
2019-03-13T09:08:15.703Z,68.39
2019-03-13T09:13:35.761Z,67.65
2019-03-13T09:16:21.766Z,66.92
2019-03-13T09:19:07.763Z,67.26
2019-03-13T09:27:01.665Z,67.05
2019-03-13T09:32:35.262Z,66.65
2019-03-13T09:35:21.237Z,65.75
2019-03-13T09:38:07.247Z,65.12
2019-03-13T09:40:53.228Z,65.76
2019-03-13T09:43:39.231Z,64.86
2019-03-13T09:46:25.221Z,64.09
2019-03-13T09:51:44.975Z,64.07
2019-03-13T09:54:30.956Z,63.57
2019-03-13T09:57:16.961Z,62.35
2019-03-13T10:00:02.946Z,62.39
2019-03-13T10:02:48.941Z,62.99
2019-03-13T10:05:34.921Z,64.15
2019-03-13T10:13:28.572Z,63.16
2019-03-13T10:16:14.567Z,63.28
2019-03-13T10:19:00.635Z,62.92
2019-03-13T10:21:46.564Z,62.21
2019-03-13T10:27:06.733Z,62.43
2019-03-13T10:29:52.769Z,62.72
2019-03-13T10:35:26.377Z,62.27
2019-03-13T10:38:14.153Z,62.67
2019-03-13T10:46:08.034Z,60.99
2019-03-13T10:48:54.025Z,61.79
2019-03-13T10:56:48.264Z,61.09
2019-03-13T10:59:34.246Z,61.39
2019-03-13T11:02:20.251Z,61.35
2019-03-13T11:05:06.236Z,60.59
2019-03-13T11:07:52.380Z,61.87
2019-03-13T11:13:15.700Z,61.57
2019-03-13T11:18:49.390Z,61.77
2019-03-13T11:21:35.465Z,61.07
2019-03-13T11:24:21.472Z,61.78
2019-03-13T11:29:55.064Z,63.03
2019-03-13T11:32:41.050Z,62.70
2019-03-13T11:35:27.153Z,63.30
2019-03-13T11:41:00.749Z,62.92
2019-03-13T11:43:46.738Z,62.53
2019-03-13T11:49:06.589Z,61.89
2019-03-13T11:51:52.605Z,62.19
2019-03-13T11:54:38.576Z,61.73
2019-03-13T11:57:24.568Z,62.31
2019-03-13T12:00:10.551Z,61.39
2019-03-13T12:02:56.592Z,61.06
2019-03-13T12:05:42.578Z,61.20
2019-03-13T12:08:28.579Z,61.33
2019-03-13T12:11:14.574Z,60.69
2019-03-13T12:14:00.575Z,60.89
2019-03-13T12:16:46.560Z,61.58
2019-03-13T12:22:20.151Z,61.41
2019-03-13T12:25:06.150Z,61.43
2019-03-13T12:27:52.141Z,61.30
2019-03-13T12:30:38.133Z,61.99
2019-03-13T12:36:01.874Z,61.68
2019-03-13T12:38:47.840Z,61.17
2019-03-13T12:41:33.823Z,61.70
2019-03-13T12:46:53.901Z,61.64
2019-03-13T12:49:39.904Z,62.44
2019-03-13T12:52:25.906Z,63.15
2019-03-13T12:55:11.904Z,62.69
2019-03-13T12:57:57.893Z,63.16
2019-03-13T13:00:43.892Z,63.37
2019-03-13T13:03:29.887Z,64.28
2019-03-13T13:09:03.491Z,63.49
2019-03-13T13:11:49.480Z,64.00
2019-03-13T13:14:35.476Z,63.92
2019-03-13T13:19:49.330Z,64.14
2019-03-13T13:22:15.557Z,64.67
2019-03-13T13:24:41.814Z,64.99
2019-03-13T13:27:08.041Z,65.92
2019-03-13T13:29:34.284Z,65.45
2019-03-13T13:32:00.526Z,66.17
2019-03-13T13:34:26.751Z,66.04
2019-03-13T13:36:52.999Z,66.26
2019-03-13T13:39:19.246Z,66.27
2019-03-13T13:41:45.484Z,66.27
2019-03-13T13:44:11.712Z,66.81
2019-03-13T13:46:37.964Z,66.65
2019-03-13T13:49:04.200Z,67.14
2019-03-13T13:51:32.720Z,67.49
2019-03-13T13:53:58.569Z,67.52
2019-03-13T13:56:24.813Z,67.54
2019-03-13T13:58:51.045Z,67.90
2019-03-13T14:01:17.287Z,67.62
2019-03-13T14:03:43.522Z,68.32
2019-03-13T14:06:09.764Z,68.30
2019-03-13T14:08:36.004Z,67.77
2019-03-13T14:11:02.228Z,67.97
2019-03-13T14:13:28.475Z,68.63
2019-03-13T14:15:54.708Z,68.51
2019-03-13T14:18:20.958Z,68.87
2019-03-13T14:20:47.189Z,69.80
2019-03-13T14:23:13.440Z,68.56
2019-03-13T14:25:39.670Z,68.47
2019-03-13T14:28:05.916Z,69.16
2019-03-13T14:30:32.241Z,68.98
2019-03-13T14:32:58.491Z,69.26
2019-03-13T14:35:24.727Z,69.14
2019-03-13T14:37:50.963Z,69.40
2019-03-13T14:43:31.235Z,70.26
2019-03-13T14:45:57.463Z,69.78
2019-03-13T14:48:23.708Z,69.99
2019-03-13T14:50:49.950Z,69.72
2019-03-13T14:53:16.257Z,70.42
2019-03-13T14:55:42.489Z,70.21
2019-03-13T14:58:08.728Z,70.45
2019-03-13T15:00:34.960Z,70.49
2019-03-13T15:03:01.241Z,70.85
2019-03-13T15:05:27.470Z,70.52
2019-03-13T15:07:53.734Z,70.21
2019-03-13T15:13:34.004Z,70.16
2019-03-13T15:16:00.236Z,70.47
2019-03-13T15:18:26.479Z,70.02
2019-03-13T15:20:52.711Z,69.83
2019-03-13T15:23:18.957Z,70.49
2019-03-13T15:28:30.991Z,69.51
2019-03-13T15:30:57.225Z,69.60
2019-03-13T15:33:23.478Z,70.07
2019-03-13T15:35:49.711Z,69.26
2019-03-13T15:38:15.940Z,69.38
2019-03-13T15:40:42.187Z,69.61
2019-03-13T15:43:08.450Z,69.65
2019-03-13T15:45:34.668Z,69.68
2019-03-13T15:48:00.908Z,69.92
2019-03-13T15:50:27.149Z,69.73
2019-03-13T15:52:53.480Z,69.74
2019-03-13T15:55:19.721Z,69.92
2019-03-13T15:57:46.048Z,69.94
2019-03-13T16:00:53.601Z,70.25
2019-03-13T16:03:19.832Z,70.32
2019-03-13T16:05:46.075Z,70.43
2019-03-13T16:08:12.324Z,70.88
2019-03-13T16:10:38.575Z,71.07
2019-03-13T16:18:12.587Z,71.50
2019-03-13T16:20:38.839Z,72.45
2019-03-13T16:23:05.073Z,72.90
2019-03-13T16:25:31.316Z,72.73
2019-03-13T16:31:11.496Z,73.22
2019-03-13T16:33:37.732Z,73.50
2019-03-13T16:36:03.989Z,73.92
2019-03-13T16:38:30.212Z,74.26
2019-03-13T16:40:56.452Z,74.26
2019-03-13T16:43:22.702Z,74.20
2019-03-13T16:45:48.948Z,73.81
2019-03-13T16:48:15.183Z,74.03
2019-03-13T16:50:41.519Z,74.18
2019-03-13T16:53:07.783Z,75.07
2019-03-13T16:55:34.006Z,74.48
2019-03-13T16:58:00.367Z,74.48
2019-03-13T17:01:08.005Z,74.66
2019-03-13T17:04:33.493Z,75.64
2019-03-13T17:06:59.757Z,75.14
2019-03-13T17:09:26.005Z,75.35
2019-03-13T17:11:52.250Z,75.59
2019-03-13T17:14:18.496Z,75.53
2019-03-13T17:16:44.750Z,75.87
2019-03-13T17:19:10.982Z,75.23
2019-03-13T17:21:37.207Z,75.90
2019-03-13T17:24:03.535Z,76.09
2019-03-13T17:26:29.777Z,75.55
2019-03-13T17:28:56.016Z,75.99
2019-03-13T17:31:22.245Z,76.32
2019-03-13T17:33:48.497Z,75.79
2019-03-13T17:36:14.727Z,76.33
2019-03-13T17:38:41.004Z,77.09
2019-03-13T17:41:07.212Z,77.51
2019-03-13T17:43:39.234Z,77.28
2019-03-13T17:46:01.665Z,78.77
2019-03-13T17:48:27.921Z,78.31
2019-03-13T17:50:54.153Z,79.27
2019-03-13T17:53:20.404Z,80.85
2019-03-13T17:55:46.639Z,80.85
2019-03-13T17:58:12.932Z,80.41
2019-03-13T18:01:20.493Z,80.43
2019-03-13T18:04:28.051Z,80.79
2019-03-13T18:06:54.289Z,81.26
2019-03-13T18:09:20.553Z,81.80
2019-03-13T18:11:46.792Z,81.04
2019-03-13T18:14:13.049Z,81.00
2019-03-13T18:16:39.329Z,82.11
2019-03-13T18:19:05.567Z,82.41
2019-03-13T18:21:31.810Z,82.52
2019-03-13T18:23:58.052Z,82.56
2019-03-13T18:26:24.312Z,82.90
2019-03-13T18:28:50.552Z,82.78
2019-03-13T18:31:16.809Z,84.70
2019-03-13T18:33:43.039Z,84.87
2019-03-13T18:36:09.299Z,85.50
2019-03-13T18:38:35.549Z,85.39
2019-03-13T18:41:01.832Z,85.34
2019-03-13T18:43:28.077Z,85.97
2019-03-13T18:45:54.321Z,87.04
2019-03-13T18:48:20.549Z,86.86
2019-03-13T18:50:46.904Z,86.78
2019-03-13T18:53:13.136Z,87.42
2019-03-13T18:55:39.384Z,87.83
2019-03-13T18:58:05.609Z,88.38
2019-03-13T19:00:53.414Z,87.52
2019-03-13T19:03:19.652Z,87.98
2019-03-13T19:05:45.919Z,87.83
2019-03-13T19:08:12.171Z,88.58
2019-03-13T19:10:38.417Z,88.63
2019-03-13T19:13:04.655Z,88.40
2019-03-13T19:15:30.908Z,88.97
2019-03-13T19:18:00.359Z,88.75
2019-03-13T19:23:26.056Z,87.93
2019-03-13T19:25:52.294Z,88.79
2019-03-13T19:28:18.523Z,88.75
2019-03-13T19:30:44.782Z,88.25
2019-03-13T19:33:11.011Z,88.10
2019-03-13T19:35:37.263Z,89.04
2019-03-13T19:38:44.792Z,88.11
2019-03-13T19:41:11.040Z,89.05
2019-03-13T19:43:37.272Z,88.81
2019-03-13T19:46:03.527Z,88.96
2019-03-13T19:48:37.240Z,89.37
2019-03-13T19:51:03.499Z,89.92
2019-03-13T19:53:29.749Z,90.06
2019-03-13T19:55:55.977Z,89.81
2019-03-13T19:58:22.226Z,89.99
2019-03-13T20:00:48.461Z,90.34
2019-03-13T20:03:56.012Z,90.38
2019-03-13T20:06:22.255Z,90.06
2019-03-13T20:08:48.514Z,90.10
2019-03-13T20:11:14.945Z,89.70
2019-03-13T20:13:41.201Z,89.41
2019-03-13T20:16:07.430Z,89.62
2019-03-13T20:18:33.670Z,90.27
2019-03-13T20:20:59.900Z,89.93
2019-03-13T20:23:26.139Z,89.81
2019-03-13T20:25:52.376Z,90.18
2019-03-13T20:28:18.607Z,90.55
2019-03-13T20:30:44.843Z,90.93
2019-03-13T20:33:11.087Z,90.61
2019-03-13T20:35:37.417Z,90.96
2019-03-13T20:38:03.627Z,90.64
2019-03-13T20:40:29.861Z,90.61
2019-03-13T20:42:56.259Z,90.34
2019-03-13T20:46:03.804Z,90.87
2019-03-13T20:48:30.177Z,90.58
2019-03-13T20:50:56.404Z,90.73
2019-03-13T20:53:22.647Z,90.32
2019-03-13T20:55:48.879Z,90.52
2019-03-13T20:58:15.124Z,91.32
2019-03-13T21:00:41.363Z,91.03
2019-03-13T21:03:07.738Z,91.18
2019-03-13T21:05:34.005Z,91.16
2019-03-13T21:08:00.226Z,90.71
2019-03-13T21:10:26.469Z,91.00
2019-03-13T21:12:52.690Z,91.21
2019-03-13T21:15:38.686Z,90.53
2019-03-13T21:18:04.920Z,90.42
2019-03-13T21:20:31.172Z,90.27
2019-03-13T21:22:58.397Z,90.98
2019-03-13T21:26:06.879Z,91.07
2019-03-13T21:28:33.134Z,91.30
2019-03-13T21:30:59.394Z,91.38
2019-03-13T21:33:25.623Z,90.52
2019-03-13T21:35:51.863Z,91.77
2019-03-13T21:38:18.098Z,91.81
2019-03-13T21:40:44.331Z,92.00
2019-03-13T21:43:10.577Z,91.99
2019-03-13T21:45:41.364Z,91.01
2019-03-13T21:48:04.970Z,90.57
2019-03-13T21:50:31.208Z,90.67
2019-03-13T21:52:57.439Z,91.29
2019-03-13T21:55:26.951Z,91.68
2019-03-13T21:57:52.566Z,91.86
2019-03-13T22:00:39.814Z,91.86
2019-03-13T22:03:06.036Z,91.50
2019-03-13T22:05:32.284Z,91.38
2019-03-13T22:07:58.533Z,91.20
2019-03-13T22:10:24.779Z,91.34
2019-03-13T22:12:51.136Z,91.92
2019-03-13T22:15:38.923Z,91.73
2019-03-13T22:18:05.203Z,91.53
2019-03-13T22:20:31.399Z,91.86
2019-03-13T22:22:57.651Z,92.01
2019-03-13T22:25:23.872Z,92.08
2019-03-13T22:27:50.123Z,91.84
2019-03-13T22:30:36.108Z,91.89
2019-03-13T22:33:02.357Z,92.02
2019-03-13T22:35:28.584Z,92.05
2019-03-13T22:37:54.858Z,91.66
2019-03-13T22:40:21.073Z,91.16
2019-03-13T22:42:47.306Z,91.94
2019-03-13T22:45:54.864Z,92.19
2019-03-13T22:48:21.126Z,92.26
2019-03-13T22:50:47.358Z,91.91
2019-03-13T22:53:13.615Z,91.68
2019-03-13T22:55:41.026Z,91.76
2019-03-13T22:58:08.019Z,92.31
2019-03-13T23:01:15.021Z,91.93
2019-03-13T23:03:41.338Z,92.32
2019-03-13T23:06:07.596Z,92.44
2019-03-13T23:08:33.831Z,92.00
2019-03-13T23:11:00.087Z,91.79
2019-03-13T23:13:26.386Z,92.02
2019-03-13T23:15:52.612Z,92.67
2019-03-13T23:18:18.868Z,92.40
2019-03-13T23:20:45.129Z,92.50
2019-03-13T23:23:11.363Z,92.22
2019-03-13T23:25:37.627Z,92.12
2019-03-13T23:28:03.839Z,91.87
2019-03-13T23:30:30.055Z,92.15
2019-03-13T23:32:56.295Z,91.97
2019-03-13T23:35:22.540Z,92.13
2019-03-13T23:37:48.772Z,92.14
2019-03-13T23:40:15.023Z,92.27
2019-03-13T23:42:41.252Z,91.79
2019-03-13T23:45:48.870Z,92.00
2019-03-13T23:48:15.153Z,91.91
2019-03-13T23:50:41.396Z,92.55
2019-03-13T23:53:07.628Z,92.24
2019-03-13T23:55:33.901Z,92.25
2019-03-13T23:58:00.128Z,92.19
